Time;durP1;ratioP1;P1;durP2;ratioP2;P2;SDS_P1;SDS_P2;PMS_P1;PMS_P2;Temp;Humidity;BMP_temperature;BMP_pressure;BME280_temperature;BME280_humidity;BME280_pressure;Samples;Min_cycle;Max_cycle;Signal;HPM_P1;HPM_P2
2021/09/14 00:02:12;;;;;;;3.58;1.40;;;;;;;;;;5058514;28;20056;-59
2021/09/14 00:04:38;;;;;;;3.92;1.08;;;;;;;;;;5057888;28;20206;-59
2021/09/14 00:07:04;;;;;;;5.22;1.40;;;;;;;;;;5060520;28;20079;-60
2021/09/14 00:09:30;;;;;;;4.65;1.88;;;;;;;;;;5056422;28;20591;-58
2021/09/14 00:11:56;;;;;;;3.22;0.70;;;;;;;;;;5058249;28;20040;-58
2021/09/14 00:14:21;;;;;;;4.20;0.90;;;;;;;;;;5059214;28;20427;-58
2021/09/14 00:16:47;;;;;;;2.28;0.73;;;;;;;;;;5057446;28;20045;-58
2021/09/14 00:19:15;;;;;;;3.72;1.02;;;;;;;;;;5060330;28;20068;-58
2021/09/14 00:21:41;;;;;;;3.08;1.00;;;;;;;;;;5060788;28;20033;-58
2021/09/14 00:24:06;;;;;;;2.85;1.00;;;;;;;;;;5062943;28;20134;-57
2021/09/14 00:26:33;;;;;;;2.60;0.90;;;;;;;;;;5061469;28;20032;-58
2021/09/14 00:28:59;;;;;;;2.70;1.00;;;;;;;;;;5040594;28;20056;-58
2021/09/14 00:31:25;;;;;;;3.13;1.00;;;;;;;;;;5065299;28;20036;-56
2021/09/14 00:33:51;;;;;;;2.70;0.90;;;;;;;;;;5064593;28;20036;-58
2021/09/14 00:36:26;;;;;;;2.85;0.85;;;;;;;;;;5051671;28;20028;-56
2021/09/14 00:39:06;;;;;;;2.80;0.93;;;;;;;;;;5038139;28;20032;-56
2021/09/14 00:48:35;;;;;;;2.80;1.00;;;;;;;;;;4947582;28;20066;-57
2021/09/14 00:51:02;;;;;;;2.40;0.82;;;;;;;;;;4957658;28;20043;-56
2021/09/14 00:53:28;;;;;;;2.22;0.82;;;;;;;;;;4956376;28;20042;-55
2021/09/14 00:55:56;;;;;;;2.13;0.70;;;;;;;;;;4956913;28;20372;-55
2021/09/14 00:58:22;;;;;;;2.88;1.00;;;;;;;;;;4956949;28;20035;-57
2021/09/14 01:00:48;;;;;;;4.28;1.52;;;;;;;;;;4957012;28;20077;-55
2021/09/14 01:03:14;;;;;;;7.57;1.23;;;;;;;;;;4954945;28;20149;-55
2021/09/14 01:05:40;;;;;;;4.35;1.00;;;;;;;;;;4958577;28;20050;-56
2021/09/14 01:08:06;;;;;;;3.30;0.98;;;;;;;;;;4956890;28;20514;-56
2021/09/14 01:10:33;;;;;;;3.10;1.00;;;;;;;;;;4957855;28;20522;-57
2021/09/14 01:12:59;;;;;;;2.85;1.00;;;;;;;;;;4955572;28;20802;-55
2021/09/14 01:15:27;;;;;;;4.15;1.00;;;;;;;;;;4956585;28;20061;-55
2021/09/14 01:17:53;;;;;;;3.10;0.85;;;;;;;;;;4957778;28;20046;-55
2021/09/14 01:20:20;;;;;;;4.55;0.98;;;;;;;;;;4983298;28;20158;-56
2021/09/14 01:29:04;;;;;;;3.28;1.00;;;;;;;;;;5185977;23;20053;-53
2021/09/14 01:32:15;;;;;;;4.75;1.20;;;;;;;;;;5003993;28;20060;-57
2021/09/14 01:40:28;;;;;;;4.43;1.27;;;;;;;;;;5198063;23;20053;-53
2021/09/14 01:46:06;;;;;;;;;;;;;;;;;;4985255;28;20157;-56
2021/09/14 01:48:32;;;;;;;9.32;1.15;;;;;;;;;;4985184;28;19918;-57
2021/09/14 01:50:58;;;;;;;4.03;1.10;;;;;;;;;;4989884;28;20498;-56
2021/09/14 01:53:26;;;;;;;3.47;1.33;;;;;;;;;;4995339;28;20042;-56
2021/09/14 01:55:53;;;;;;;3.65;1.05;;;;;;;;;;4996259;28;20050;-57
2021/09/14 01:58:19;;;;;;;6.30;1.30;;;;;;;;;;4994056;28;20038;-57
2021/09/14 02:00:58;;;;;;;4.13;1.00;;;;;;;;;;4995507;28;20425;-57
2021/09/14 02:59:33;;;;;;;3.78;1.20;;;;;;;;;;5046073;28;20037;-56
2021/09/14 03:02:00;;;;;;;4.82;1.40;;;;;;;;;;5044772;28;20040;-56
2021/09/14 03:04:26;;;;;;;4.40;1.55;;;;;;;;;;5047560;28;20094;-55
2021/09/14 03:06:51;;;;;;;7.15;1.52;;;;;;;;;;5045972;28;20041;-56
2021/09/14 03:09:17;;;;;;;4.35;1.42;;;;;;;;;;5046401;28;20078;-56
2021/09/14 03:11:43;;;;;;;3.70;1.30;;;;;;;;;;5045767;28;20044;-56
2021/09/14 03:14:09;;;;;;;5.65;1.50;;;;;;;;;;5047213;28;20507;-56
2021/09/14 03:16:35;;;;;;;3.55;1.23;;;;;;;;;;5035751;28;20051;-56
2021/09/14 03:19:01;;;;;;;3.47;1.20;;;;;;;;;;5047045;28;20048;-56
2021/09/14 03:21:27;;;;;;;3.75;1.20;;;;;;;;;;5047170;28;20037;-55
2021/09/14 03:23:53;;;;;;;3.40;1.20;;;;;;;;;;5049217;28;20398;-56
2021/09/14 03:26:19;;;;;;;3.72;1.33;;;;;;;;;;5048604;28;20147;-56
2021/09/14 03:28:44;;;;;;;5.45;1.38;;;;;;;;;;5037354;28;20041;-54
2021/09/14 03:31:10;;;;;;;4.15;1.52;;;;;;;;;;5028595;28;20449;-55
2021/09/14 03:33:36;;;;;;;4.25;1.80;;;;;;;;;;5039239;28;20046;-55
2021/09/14 03:36:02;;;;;;;5.93;2.20;;;;;;;;;;5048325;28;20063;-56
2021/09/14 03:38:28;;;;;;;6.93;2.25;;;;;;;;;;5049978;28;20044;-55
2021/09/14 03:40:53;;;;;;;9.00;2.15;;;;;;;;;;5051276;28;20071;-54
2021/09/14 03:43:19;;;;;;;7.65;2.58;;;;;;;;;;5048278;28;20052;-56
2021/09/14 03:45:47;;;;;;;12.07;2.33;;;;;;;;;;5027674;28;20041;-55
2021/09/14 03:48:13;;;;;;;10.27;2.95;;;;;;;;;;5037686;28;20033;-57
2021/09/14 03:50:39;;;;;;;6.45;2.88;;;;;;;;;;5035525;28;20114;-56
2021/09/14 03:53:05;;;;;;;10.85;3.88;;;;;;;;;;5033012;28;20589;-56
2021/09/14 03:55:31;;;;;;;8.43;3.08;;;;;;;;;;5031195;28;20037;-56
2021/09/14 03:57:57;;;;;;;8.55;3.10;;;;;;;;;;5032872;28;20041;-56
2021/09/14 04:00:23;;;;;;;6.68;2.60;;;;;;;;;;5040425;28;20052;-58
2021/09/14 04:02:55;;;;;;;6.82;2.53;;;;;;;;;;5045223;28;20068;-57
2021/09/14 04:05:44;;;;;;;9.10;3.08;;;;;;;;;;5051752;28;20508;-56
2021/09/14 04:10:36;;;;;;;6.55;2.35;;;;;;;;;;5039881;28;20389;-56
2021/09/14 04:13:02;;;;;;;5.68;2.10;;;;;;;;;;5033355;28;20041;-56
2021/09/14 04:15:28;;;;;;;5.22;1.52;;;;;;;;;;5044239;28;20044;-57
2021/09/14 04:17:54;;;;;;;4.75;1.80;;;;;;;;;;5033634;28;20055;-56
2021/09/14 04:20:19;;;;;;;7.72;1.50;;;;;;;;;;5029833;28;20896;-56
2021/09/14 04:22:45;;;;;;;9.30;1.73;;;;;;;;;;5031591;28;20045;-57
2021/09/14 04:25:11;;;;;;;5.13;1.80;;;;;;;;;;5032186;28;20050;-56
2021/09/14 04:27:37;;;;;;;6.45;1.70;;;;;;;;;;5034275;28;20093;-54
2021/09/14 04:30:05;;;;;;;5.05;1.80;;;;;;;;;;5037783;28;20046;-56
2021/09/14 04:32:31;;;;;;;3.83;1.42;;;;;;;;;;5042254;28;20650;-56
2021/09/14 04:34:56;;;;;;;6.72;2.10;;;;;;;;;;5052171;28;20045;-55
2021/09/14 04:37:23;;;;;;;3.95;1.60;;;;;;;;;;5051445;28;20172;-56
2021/09/14 04:39:49;;;;;;;5.30;1.75;;;;;;;;;;5052181;28;20047;-57
2021/09/14 04:42:15;;;;;;;4.90;1.60;;;;;;;;;;5049647;28;20052;-56
2021/09/14 04:44:41;;;;;;;3.95;1.60;;;;;;;;;;5049245;28;20052;-56
2021/09/14 04:47:06;;;;;;;3.95;1.60;;;;;;;;;;5050094;28;20603;-55
2021/09/14 04:49:32;;;;;;;6.03;1.50;;;;;;;;;;5049128;28;20044;-55
2021/09/14 04:51:58;;;;;;;7.47;1.80;;;;;;;;;;5050622;28;20044;-56
2021/09/14 04:54:24;;;;;;;7.50;2.03;;;;;;;;;;5051899;28;20489;-56
2021/09/14 04:56:50;;;;;;;5.65;1.75;;;;;;;;;;5052346;28;20080;-56
2021/09/14 04:59:15;;;;;;;4.63;1.77;;;;;;;;;;5052210;28;20076;-56
2021/09/14 05:01:43;;;;;;;8.95;2.00;;;;;;;;;;5049981;28;20048;-56
2021/09/14 05:04:08;;;;;;;4.90;1.65;;;;;;;;;;5050894;28;20044;-56
2021/09/14 05:06:34;;;;;;;6.10;1.85;;;;;;;;;;5049222;28;20395;-56
2021/09/14 05:09:00;;;;;;;5.15;1.90;;;;;;;;;;5050972;28;20073;-56
2021/09/14 05:11:26;;;;;;;6.47;2.42;;;;;;;;;;5048137;28;20036;-56
2021/09/14 05:13:52;;;;;;;4.70;1.83;;;;;;;;;;5049786;28;20049;-56
2021/09/14 05:16:17;;;;;;;4.85;1.65;;;;;;;;;;5050201;28;20040;-54
2021/09/14 05:18:47;;;;;;;6.65;2.00;;;;;;;;;;5049667;28;20033;-56
2021/09/14 05:21:12;;;;;;;9.27;2.20;;;;;;;;;;5048722;28;20161;-56
2021/09/14 05:23:38;;;;;;;3.97;1.95;;;;;;;;;;5049591;28;20505;-53
2021/09/14 05:26:04;;;;;;;5.95;1.77;;;;;;;;;;5050088;28;20466;-55
2021/09/14 05:28:31;;;;;;;8.45;1.80;;;;;;;;;;5049439;28;22965;-56
2021/09/14 05:30:57;;;;;;;5.43;1.85;;;;;;;;;;5051485;28;21025;-56
2021/09/14 05:33:24;;;;;;;4.70;2.00;;;;;;;;;;5049969;28;20078;-56
2021/09/14 05:35:50;;;;;;;10.30;1.92;;;;;;;;;;5051925;28;20086;-56
2021/09/14 05:38:17;;;;;;;4.57;2.00;;;;;;;;;;5051607;28;20052;-55
2021/09/14 05:40:44;;;;;;;6.15;1.88;;;;;;;;;;5050430;28;20143;-56
2021/09/14 05:43:09;;;;;;;6.07;2.05;;;;;;;;;;5051038;28;20559;-56
2021/09/14 05:45:35;;;;;;;6.18;1.80;;;;;;;;;;5053032;28;20103;-56
2021/09/14 05:48:01;;;;;;;5.28;2.22;;;;;;;;;;5038849;28;20068;-56
2021/09/14 05:50:27;;;;;;;4.63;1.85;;;;;;;;;;5052276;28;20106;-56
2021/09/14 05:52:53;;;;;;;4.53;1.70;;;;;;;;;;5050423;28;20152;-56
2021/09/14 05:55:19;;;;;;;7.78;1.90;;;;;;;;;;5050366;28;20156;-56
2021/09/14 05:57:44;;;;;;;3.50;1.70;;;;;;;;;;5050210;28;20047;-56
2021/09/14 06:00:10;;;;;;;6.20;1.92;;;;;;;;;;5052510;28;20898;-54
2021/09/14 06:02:37;;;;;;;4.88;1.83;;;;;;;;;;5050189;28;20033;-53
2021/09/14 06:05:03;;;;;;;3.45;1.60;;;;;;;;;;5051192;28;20048;-54
2021/09/14 06:07:29;;;;;;;8.52;2.20;;;;;;;;;;5050317;28;20033;-55
2021/09/14 06:09:55;;;;;;;6.75;1.58;;;;;;;;;;5051297;28;20050;-56
2021/09/14 06:12:21;;;;;;;5.82;1.58;;;;;;;;;;5051392;28;20040;-56
2021/09/14 06:14:47;;;;;;;6.35;1.70;;;;;;;;;;5052184;28;20040;-56
2021/09/14 06:17:13;;;;;;;6.32;1.95;;;;;;;;;;5050936;28;20050;-56
2021/09/14 06:19:39;;;;;;;4.20;1.80;;;;;;;;;;5050293;28;20052;-57
2021/09/14 06:22:04;;;;;;;6.32;2.00;;;;;;;;;;5042020;28;20044;-57
2021/09/14 06:24:31;;;;;;;4.78;1.80;;;;;;;;;;5049168;28;20044;-56
2021/09/14 06:26:56;;;;;;;4.88;1.58;;;;;;;;;;5048280;28;20068;-56
2021/09/14 06:29:22;;;;;;;5.22;1.25;;;;;;;;;;5039850;28;20129;-56
2021/09/14 06:31:48;;;;;;;4.05;1.10;;;;;;;;;;5036786;28;20037;-56
2021/09/14 06:34:14;;;;;;;5.72;1.00;;;;;;;;;;5044340;28;20077;-57
2021/09/14 06:36:40;;;;;;;2.42;0.80;;;;;;;;;;5028750;28;20051;-55
2021/09/14 06:39:05;;;;;;;2.38;0.80;;;;;;;;;;5031751;28;20049;-56
2021/09/14 06:41:31;;;;;;;3.53;1.05;;;;;;;;;;5032210;28;20078;-56
2021/09/14 06:43:58;;;;;;;4.15;0.80;;;;;;;;;;5031501;28;20088;-56
2021/09/14 06:46:24;;;;;;;2.92;1.10;;;;;;;;;;5030427;28;20041;-56
2021/09/14 06:48:50;;;;;;;2.75;1.00;;;;;;;;;;5031330;28;20477;-57
2021/09/14 06:51:16;;;;;;;2.78;1.02;;;;;;;;;;5039811;28;20105;-56
2021/09/14 06:53:41;;;;;;;3.50;1.17;;;;;;;;;;5022974;28;20587;-57
2021/09/14 06:56:08;;;;;;;3.20;0.90;;;;;;;;;;5051682;28;20047;-55
2021/09/14 06:58:34;;;;;;;3.75;1.10;;;;;;;;;;5046834;28;20101;-56
2021/09/14 07:01:00;;;;;;;2.60;0.95;;;;;;;;;;5050207;28;20112;-56
2021/09/14 07:03:26;;;;;;;3.42;1.00;;;;;;;;;;5048242;28;20064;-56
2021/09/14 07:05:52;;;;;;;2.92;1.00;;;;;;;;;;5049493;28;20060;-54
2021/09/14 07:08:18;;;;;;;3.13;1.10;;;;;;;;;;5049178;28;20037;-54
2021/09/14 07:10:43;;;;;;;2.88;1.10;;;;;;;;;;5050750;28;20036;-56
2021/09/14 07:13:09;;;;;;;3.05;1.05;;;;;;;;;;5050194;28;20460;-56
2021/09/14 07:15:35;;;;;;;2.85;0.90;;;;;;;;;;5049929;28;20430;-56
2021/09/14 07:18:01;;;;;;;2.60;1.00;;;;;;;;;;5048432;28;20047;-56
2021/09/14 07:20:27;;;;;;;3.25;1.20;;;;;;;;;;5049184;28;20059;-56
2021/09/14 07:22:53;;;;;;;2.92;1.02;;;;;;;;;;5047570;28;20036;-56
2021/09/14 07:25:19;;;;;;;3.50;1.30;;;;;;;;;;5047681;28;20195;-55
2021/09/14 07:27:46;;;;;;;4.80;1.08;;;;;;;;;;5047574;28;20038;-56
2021/09/14 07:30:12;;;;;;;4.45;1.10;;;;;;;;;;5049875;28;20037;-55
2021/09/14 07:32:38;;;;;;;2.40;0.90;;;;;;;;;;5046907;28;20052;-55
2021/09/14 07:35:04;;;;;;;3.35;1.20;;;;;;;;;;5050102;28;20411;-56
2021/09/14 07:37:30;;;;;;;2.85;1.20;;;;;;;;;;5047989;28;20066;-54
2021/09/14 07:39:56;;;;;;;3.70;1.13;;;;;;;;;;5049147;28;20068;-56
2021/09/14 07:42:22;;;;;;;3.17;1.08;;;;;;;;;;5046515;28;20063;-56
2021/09/14 07:44:49;;;;;;;4.57;1.17;;;;;;;;;;5030260;28;20048;-56
2021/09/14 07:47:16;;;;;;;3.28;1.10;;;;;;;;;;5049057;28;20516;-57
2021/09/14 07:49:42;;;;;;;4.97;1.40;;;;;;;;;;5049143;28;20190;-55
2021/09/14 07:52:08;;;;;;;2.80;1.00;;;;;;;;;;5048381;28;20575;-54
2021/09/14 07:54:33;;;;;;;4.90;1.00;;;;;;;;;;5046489;28;20064;-56
2021/09/14 07:57:00;;;;;;;3.15;1.10;;;;;;;;;;5048238;28;20035;-56
2021/09/14 07:59:26;;;;;;;3.25;1.02;;;;;;;;;;5046737;28;20129;-54
2021/09/14 08:01:51;;;;;;;4.00;1.33;;;;;;;;;;5046852;28;20044;-55
2021/09/14 08:04:18;;;;;;;3.10;1.13;;;;;;;;;;5049287;28;20048;-55
2021/09/14 08:06:44;;;;;;;3.00;1.10;;;;;;;;;;5047163;28;20048;-54
2021/09/14 08:09:09;;;;;;;4.18;1.15;;;;;;;;;;5047700;28;20388;-55
2021/09/14 08:11:35;;;;;;;3.92;1.35;;;;;;;;;;5046065;28;20108;-55
2021/09/14 08:14:01;;;;;;;3.70;1.30;;;;;;;;;;5048812;28;20107;-56
2021/09/14 08:16:27;;;;;;;3.22;1.17;;;;;;;;;;5029640;28;21070;-56
2021/09/14 08:18:53;;;;;;;5.05;1.05;;;;;;;;;;5047324;28;20049;-55
2021/09/14 08:21:19;;;;;;;3.15;1.15;;;;;;;;;;5046564;28;20044;-55
2021/09/14 08:23:45;;;;;;;3.83;1.35;;;;;;;;;;5048026;28;20496;-55
2021/09/14 08:26:11;;;;;;;3.70;1.30;;;;;;;;;;5046649;28;20118;-55
2021/09/14 08:28:36;;;;;;;5.53;1.33;;;;;;;;;;5047037;28;20533;-55
2021/09/14 08:31:02;;;;;;;3.67;1.50;;;;;;;;;;5048346;28;20604;-55
2021/09/14 08:33:28;;;;;;;4.10;1.52;;;;;;;;;;5047502;28;20048;-56
2021/09/14 08:35:54;;;;;;;6.05;2.00;;;;;;;;;;5050523;28;20066;-54
2021/09/14 08:38:19;;;;;;;7.20;1.70;;;;;;;;;;5048291;28;20064;-55
2021/09/14 08:40:46;;;;;;;4.70;1.45;;;;;;;;;;5053304;28;20037;-55
2021/09/14 08:43:12;;;;;;;4.03;1.80;;;;;;;;;;5050451;28;20044;-56
2021/09/14 08:45:38;;;;;;;4.68;1.60;;;;;;;;;;5051965;28;20045;-54
2021/09/14 08:48:04;;;;;;;4.43;1.60;;;;;;;;;;5052133;28;20047;-56
2021/09/14 08:50:30;;;;;;;3.13;1.48;;;;;;;;;;5051093;28;20075;-56
2021/09/14 08:52:56;;;;;;;4.38;1.75;;;;;;;;;;5051000;28;20095;-56
2021/09/14 08:55:22;;;;;;;3.35;1.30;;;;;;;;;;5032528;28;20045;-56
2021/09/14 08:57:54;;;;;;;3.28;1.45;;;;;;;;;;5052910;28;20037;-54
2021/09/14 09:00:30;;;;;;;4.03;1.67;;;;;;;;;;5050613;28;20426;-55
2021/09/14 09:02:56;;;;;;;3.20;1.52;;;;;;;;;;5051707;28;20100;-56
2021/09/14 09:05:32;;;;;;;4.43;1.67;;;;;;;;;;5051641;28;20482;-55
2021/09/14 09:07:58;;;;;;;3.15;1.38;;;;;;;;;;5051371;28;20048;-55
2021/09/14 09:10:24;;;;;;;3.88;1.58;;;;;;;;;;5050165;28;20041;-54
2021/09/14 09:12:50;;;;;;;5.35;1.60;;;;;;;;;;5050697;28;20051;-55
2021/09/14 09:15:22;;;;;;;4.15;1.75;;;;;;;;;;5051757;28;20498;-56
2021/09/14 09:17:58;;;;;;;4.25;1.42;;;;;;;;;;5051286;28;20468;-56
2021/09/14 09:20:24;;;;;;;3.75;1.73;;;;;;;;;;5051950;28;20063;-54
2021/09/14 09:22:56;;;;;;;3.90;1.75;;;;;;;;;;5052468;28;20047;-56
2021/09/14 09:25:22;;;;;;;6.53;1.65;;;;;;;;;;5051628;28;20884;-55
2021/09/14 09:27:51;;;;;;;4.20;1.80;;;;;;;;;;5050222;28;20049;-56
2021/09/14 09:30:19;;;;;;;6.45;2.17;;;;;;;;;;5052570;28;20095;-55
2021/09/14 09:32:49;;;;;;;5.13;1.67;;;;;;;;;;5050710;28;20068;-55
2021/09/14 09:35:25;;;;;;;5.13;1.75;;;;;;;;;;5051412;28;20036;-55
2021/09/14 09:37:54;;;;;;;4.20;1.90;;;;;;;;;;5051572;28;20059;-56
2021/09/14 09:40:24;;;;;;;6.40;2.03;;;;;;;;;;5052071;28;20072;-55
2021/09/14 09:42:50;;;;;;;4.80;1.75;;;;;;;;;;5050533;28;20043;-57
2021/09/14 09:45:19;;;;;;;4.63;2.20;;;;;;;;;;5052164;28;20939;-56
2021/09/14 09:47:48;;;;;;;4.65;1.90;;;;;;;;;;5051156;28;20091;-54
2021/09/14 09:50:14;;;;;;;5.63;1.77;;;;;;;;;;5051923;28;20033;-56
2021/09/14 09:52:41;;;;;;;4.40;1.70;;;;;;;;;;5051840;28;20116;-56
2021/09/14 09:55:07;;;;;;;3.88;1.75;;;;;;;;;;5039915;28;20108;-56
2021/09/14 09:57:33;;;;;;;4.07;1.58;;;;;;;;;;5051735;28;20117;-56
2021/09/14 09:59:59;;;;;;;9.27;1.92;;;;;;;;;;5052953;28;20477;-56
2021/09/14 10:02:27;;;;;;;6.47;1.83;;;;;;;;;;5049274;28;20047;-56
2021/09/14 10:05:07;;;;;;;5.95;1.73;;;;;;;;;;5051741;28;20052;-55
2021/09/14 10:07:34;;;;;;;3.70;1.60;;;;;;;;;;5051848;28;20048;-55
2021/09/14 10:10:00;;;;;;;3.80;1.65;;;;;;;;;;5053763;28;20037;-56
2021/09/14 10:12:33;;;;;;;8.25;1.85;;;;;;;;;;5051566;28;20887;-56
2021/09/14 10:15:02;;;;;;;5.68;1.63;;;;;;;;;;5052035;28;20039;-55
2021/09/14 10:17:28;;;;;;;4.57;1.98;;;;;;;;;;5052509;28;20037;-56
2021/09/14 10:19:54;;;;;;;4.45;2.05;;;;;;;;;;5052440;28;20044;-55
2021/09/14 10:22:24;;;;;;;4.55;1.63;;;;;;;;;;5049448;28;20040;-55
2021/09/14 10:24:51;;;;;;;4.45;1.73;;;;;;;;;;5052174;28;20067;-55
2021/09/14 10:27:17;;;;;;;4.18;1.83;;;;;;;;;;5052551;28;20524;-54
2021/09/14 10:29:43;;;;;;;5.10;1.83;;;;;;;;;;5052023;28;20045;-55
2021/09/14 10:32:13;;;;;;;4.13;1.95;;;;;;;;;;5050724;28;20043;-55
2021/09/14 10:34:51;;;;;;;7.60;1.77;;;;;;;;;;5033094;28;20044;-56
2021/09/14 10:37:16;;;;;;;5.45;2.08;;;;;;;;;;5050195;28;20039;-56
2021/09/14 10:39:43;;;;;;;5.82;2.10;;;;;;;;;;5049263;28;20044;-55
2021/09/14 10:42:13;;;;;;;4.63;1.35;;;;;;;;;;5048564;28;20053;-54
2021/09/14 10:44:41;;;;;;;6.82;1.90;;;;;;;;;;5049069;28;20127;-55
2021/09/14 10:47:07;;;;;;;6.43;1.77;;;;;;;;;;5049041;28;20040;-56
2021/09/14 10:49:51;;;;;;;5.70;1.92;;;;;;;;;;5046347;28;20037;-53
2021/09/14 10:52:30;;;;;;;5.05;1.90;;;;;;;;;;5047954;28;20064;-56
2021/09/14 10:54:56;;;;;;;6.63;2.03;;;;;;;;;;5047532;28;20067;-53
2021/09/14 10:57:30;;;;;;;6.93;1.88;;;;;;;;;;5047222;28;20040;-56
2021/09/14 10:59:56;;;;;;;10.95;2.28;;;;;;;;;;5048966;28;20508;-55
2021/09/14 11:02:25;;;;;;;7.07;2.00;;;;;;;;;;5031336;28;20048;-57
2021/09/14 11:04:51;;;;;;;5.10;1.80;;;;;;;;;;5048057;28;20040;-54
2021/09/14 11:07:20;;;;;;;5.18;1.90;;;;;;;;;;5048622;28;20047;-54
2021/09/14 11:09:51;;;;;;;5.47;2.00;;;;;;;;;;5035854;28;20563;-55
2021/09/14 11:12:21;;;;;;;5.07;2.00;;;;;;;;;;5027817;28;20047;-56
2021/09/14 11:14:47;;;;;;;5.05;2.28;;;;;;;;;;5027577;28;20068;-57
2021/09/14 11:17:41;;;;;;;4.93;1.95;;;;;;;;;;5027561;28;20588;-56
2021/09/14 11:20:09;;;;;;;5.45;1.98;;;;;;;;;;5010620;28;20038;-56
2021/09/14 11:22:35;;;;;;;4.53;1.90;;;;;;;;;;5024457;28;20083;-57
2021/09/14 11:25:02;;;;;;;5.47;1.70;;;;;;;;;;5027320;28;20045;-54
2021/09/14 11:27:28;;;;;;;6.57;1.80;;;;;;;;;;5026367;28;20429;-55
2021/09/14 11:29:56;;;;;;;4.50;1.67;;;;;;;;;;5027536;28;20040;-56
2021/09/14 11:32:22;;;;;;;7.40;2.10;;;;;;;;;;5024788;28;20037;-56
2021/09/14 11:34:49;;;;;;;10.48;2.10;;;;;;;;;;5021537;28;20793;-56
2021/09/14 11:37:35;;;;;;;9.93;2.08;;;;;;;;;;5048457;28;20261;-56
2021/09/14 11:40:00;;;;;;;3.47;1.55;;;;;;;;;;5036514;28;20037;-54
2021/09/14 11:42:26;;;;;;;10.95;1.90;;;;;;;;;;5027365;28;20059;-55
2021/09/14 11:45:04;;;;;;;6.25;1.90;;;;;;;;;;5034621;28;20044;-56
2021/09/14 11:47:30;;;;;;;11.30;2.30;;;;;;;;;;5009807;28;20051;-56
2021/09/14 11:49:55;;;;;;;9.70;1.90;;;;;;;;;;5028116;28;20633;-56
2021/09/14 11:52:21;;;;;;;4.55;1.90;;;;;;;;;;5032206;28;20037;-56
2021/09/14 11:54:47;;;;;;;4.75;1.88;;;;;;;;;;5034501;28;20086;-56
2021/09/14 11:57:17;;;;;;;5.45;1.73;;;;;;;;;;5035825;28;20147;-55
2021/09/14 11:59:43;;;;;;;5.85;1.92;;;;;;;;;;5026419;28;20029;-53
2021/09/14 12:02:09;;;;;;;5.53;2.20;;;;;;;;;;5027969;28;20041;-56
2021/09/14 12:04:35;;;;;;;8.05;2.00;;;;;;;;;;5047333;28;20093;-56
2021/09/14 12:07:01;;;;;;;12.35;2.13;;;;;;;;;;5029180;28;20037;-55
2021/09/14 12:09:28;;;;;;;6.72;2.17;;;;;;;;;;5047263;28;21362;-56
2021/09/14 12:12:01;;;;;;;7.90;2.00;;;;;;;;;;5048027;28;20492;-55
2021/09/14 12:14:28;;;;;;;4.93;1.83;;;;;;;;;;5049916;28;20075;-56
2021/09/14 12:16:58;;;;;;;5.63;2.00;;;;;;;;;;5051788;28;20463;-55
2021/09/14 12:19:24;;;;;;;11.20;1.80;;;;;;;;;;5054337;28;20093;-56
2021/09/14 12:21:49;;;;;;;7.65;1.88;;;;;;;;;;5054167;28;20423;-55
2021/09/14 12:24:15;;;;;;;8.02;2.33;;;;;;;;;;5054010;28;20052;-57
2021/09/14 12:26:42;;;;;;;9.13;1.98;;;;;;;;;;5050598;28;20086;-55
2021/09/14 12:29:09;;;;;;;5.65;1.90;;;;;;;;;;5051634;28;20037;-57
2021/09/14 12:31:35;;;;;;;11.27;4.38;;;;;;;;;;5051137;28;20044;-56
2021/09/14 12:34:01;;;;;;;8.95;2.45;;;;;;;;;;5051363;28;20138;-57
2021/09/14 12:36:27;;;;;;;11.10;2.63;;;;;;;;;;5049649;28;20048;-55
2021/09/14 12:38:53;;;;;;;17.33;2.50;;;;;;;;;;5050807;28;20044;-55
2021/09/14 12:41:19;;;;;;;7.65;2.00;;;;;;;;;;5048939;28;22208;-57
2021/09/14 12:43:46;;;;;;;4.32;1.42;;;;;;;;;;5047612;28;20045;-57
2021/09/14 12:46:12;;;;;;;5.70;1.70;;;;;;;;;;5050816;28;20036;-55
2021/09/14 12:48:38;;;;;;;10.75;1.73;;;;;;;;;;5050131;28;20041;-57
2021/09/14 12:51:04;;;;;;;6.40;1.70;;;;;;;;;;5050716;28;20039;-54
2021/09/14 12:53:31;;;;;;;7.38;1.85;;;;;;;;;;5049917;28;20155;-57
2021/09/14 12:55:57;;;;;;;4.40;1.50;;;;;;;;;;5050129;28;20041;-56
2021/09/14 12:58:23;;;;;;;6.80;2.00;;;;;;;;;;5050286;28;20083;-56
2021/09/14 13:00:49;;;;;;;6.78;1.80;;;;;;;;;;5051868;28;20052;-57
2021/09/14 13:03:15;;;;;;;13.00;2.20;;;;;;;;;;5049004;28;20037;-58
2021/09/14 13:05:41;;;;;;;11.70;2.00;;;;;;;;;;5050345;28;20921;-55
2021/09/14 13:08:07;;;;;;;7.97;2.20;;;;;;;;;;5052688;28;20806;-56
2021/09/14 13:10:33;;;;;;;5.50;2.15;;;;;;;;;;5048462;28;20040;-55
2021/09/14 13:18:29;;;;;;;11.60;2.08;;;;;;;;;;5048744;28;20068;-55
2021/09/14 13:20:55;;;;;;;18.23;2.38;;;;;;;;;;5049704;28;20037;-56
2021/09/14 13:23:21;;;;;;;8.70;2.03;;;;;;;;;;5048694;28;20067;-55
2021/09/14 13:25:47;;;;;;;11.30;1.98;;;;;;;;;;5049279;28;20492;-56
2021/09/14 13:28:13;;;;;;;7.45;1.92;;;;;;;;;;5051136;28;20032;-57
2021/09/14 13:30:38;;;;;;;6.05;2.00;;;;;;;;;;5032614;28;20528;-56
2021/09/14 13:33:04;;;;;;;6.50;1.90;;;;;;;;;;5048394;28;20036;-57
2021/09/14 13:35:30;;;;;;;8.40;2.03;;;;;;;;;;5031045;28;20037;-57
2021/09/14 13:37:56;;;;;;;4.63;1.90;;;;;;;;;;5050342;28;20114;-56
2021/09/14 13:40:22;;;;;;;9.77;2.65;;;;;;;;;;5049665;28;20075;-57
2021/09/14 13:42:54;;;;;;;7.60;2.65;;;;;;;;;;5050698;28;20108;-56
2021/09/14 13:48:05;;;;;;;8.80;2.50;;;;;;;;;;5049568;28;20066;-55
2021/09/14 13:50:31;;;;;;;4.55;1.63;;;;;;;;;;5047662;28;20033;-57
2021/09/14 13:52:57;;;;;;;17.00;2.88;;;;;;;;;;5048697;28;20091;-57
2021/09/14 13:55:23;;;;;;;4.10;1.60;;;;;;;;;;5032541;28;20155;-57
2021/09/14 13:57:49;;;;;;;7.50;2.22;;;;;;;;;;5050226;28;20485;-57
2021/09/14 14:00:16;;;;;;;11.07;2.10;;;;;;;;;;5048578;28;20777;-54
2021/09/14 14:02:42;;;;;;;5.25;1.75;;;;;;;;;;5026988;28;20041;-57
2021/09/14 14:05:08;;;;;;;4.25;1.40;;;;;;;;;;5049608;28;20126;-57
2021/09/14 14:07:34;;;;;;;6.35;1.40;;;;;;;;;;5048615;28;20047;-57
2021/09/14 14:09:59;;;;;;;5.45;1.60;;;;;;;;;;5049203;28;20045;-57
2021/09/14 14:12:25;;;;;;;9.40;3.63;;;;;;;;;;5048908;28;20429;-57
2021/09/14 14:14:51;;;;;;;10.48;3.00;;;;;;;;;;5048199;28;20040;-57
2021/09/14 14:17:18;;;;;;;6.28;1.52;;;;;;;;;;5049604;28;20040;-55
2021/09/14 14:19:44;;;;;;;7.85;1.65;;;;;;;;;;5047975;28;20032;-56
2021/09/14 14:22:09;;;;;;;4.07;1.52;;;;;;;;;;5047763;28;20480;-57
2021/09/14 14:24:35;;;;;;;4.18;1.50;;;;;;;;;;5047548;28;20048;-57
2021/09/14 14:27:01;;;;;;;3.25;1.25;;;;;;;;;;5049325;28;20036;-57
2021/09/14 14:29:27;;;;;;;6.03;1.60;;;;;;;;;;5046215;28;20485;-57
2021/09/14 14:31:54;;;;;;;5.40;1.67;;;;;;;;;;5048174;28;20037;-58
2021/09/14 14:34:20;;;;;;;13.60;1.60;;;;;;;;;;5047145;28;20449;-57
2021/09/14 14:36:46;;;;;;;6.45;1.50;;;;;;;;;;5048630;28;20037;-57
2021/09/14 14:39:12;;;;;;;6.15;1.10;;;;;;;;;;5047389;28;20126;-56
2021/09/14 14:41:37;;;;;;;3.38;1.25;;;;;;;;;;5046821;28;20159;-54
2021/09/14 14:44:03;;;;;;;11.93;1.27;;;;;;;;;;5048156;28;20032;-53
2021/09/14 14:46:29;;;;;;;7.35;1.33;;;;;;;;;;5047411;28;20036;-56
2021/09/14 14:48:55;;;;;;;7.45;1.20;;;;;;;;;;5048459;28;20118;-55
2021/09/14 14:51:21;;;;;;;11.30;1.50;;;;;;;;;;5047257;28;21013;-55
2021/09/14 14:53:46;;;;;;;4.40;1.33;;;;;;;;;;5047458;28;20040;-54
2021/09/14 14:56:12;;;;;;;6.63;1.02;;;;;;;;;;5049383;28;20040;-55
2021/09/14 14:58:38;;;;;;;4.93;1.30;;;;;;;;;;5048726;28;20596;-56
2021/09/14 15:01:04;;;;;;;3.78;1.13;;;;;;;;;;5048041;28;20048;-54
2021/09/14 15:03:30;;;;;;;4.18;1.00;;;;;;;;;;5046365;28;20581;-55
2021/09/14 15:05:56;;;;;;;3.13;1.02;;;;;;;;;;5048154;28;20044;-54
2021/09/14 15:08:22;;;;;;;5.07;1.10;;;;;;;;;;5047851;28;20493;-56
2021/09/14 15:10:49;;;;;;;5.30;1.00;;;;;;;;;;5049771;28;20048;-56
2021/09/14 15:13:15;;;;;;;3.75;1.17;;;;;;;;;;5048162;28;20043;-55
2021/09/14 15:15:41;;;;;;;5.97;0.90;;;;;;;;;;5047228;28;20036;-56
2021/09/14 15:18:07;;;;;;;2.92;1.00;;;;;;;;;;5047692;28;20048;-53
2021/09/14 15:20:33;;;;;;;3.00;0.90;;;;;;;;;;5047332;28;20187;-55
2021/09/14 15:22:59;;;;;;;3.50;0.90;;;;;;;;;;5049229;28;20588;-55
2021/09/14 15:25:24;;;;;;;3.20;1.15;;;;;;;;;;5048615;28;20068;-56
2021/09/14 15:27:50;;;;;;;3.03;0.85;;;;;;;;;;5048811;28;20045;-56
2021/09/14 15:30:32;;;;;;;5.13;0.90;;;;;;;;;;5049470;28;20044;-55
2021/09/14 15:33:02;;;;;;;2.78;0.80;;;;;;;;;;5048343;28;20033;-56
2021/09/14 15:35:29;;;;;;;4.88;1.10;;;;;;;;;;5047270;28;20029;-56
2021/09/14 15:37:56;;;;;;;3.38;1.02;;;;;;;;;;5047342;28;20143;-56
2021/09/14 15:40:22;;;;;;;6.93;1.08;;;;;;;;;;5046462;28;20490;-56
2021/09/14 15:42:48;;;;;;;3.42;0.90;;;;;;;;;;5047842;28;20052;-56
2021/09/14 15:45:14;;;;;;;4.75;1.15;;;;;;;;;;5050593;28;20053;-56
2021/09/14 15:47:40;;;;;;;4.78;0.90;;;;;;;;;;5050188;28;20045;-56
2021/09/14 15:50:06;;;;;;;3.22;0.80;;;;;;;;;;5038772;28;20075;-53
2021/09/14 15:52:32;;;;;;;3.97;0.88;;;;;;;;;;5049303;28;20126;-57
2021/09/14 15:54:57;;;;;;;7.25;1.10;;;;;;;;;;5049909;28;20044;-56
2021/09/14 15:57:23;;;;;;;4.32;1.05;;;;;;;;;;5048493;28;20136;-55
2021/09/14 15:59:49;;;;;;;5.25;1.27;;;;;;;;;;5048125;28;20091;-56
2021/09/14 16:02:15;;;;;;;2.22;0.70;;;;;;;;;;5049399;28;20033;-56
2021/09/14 16:04:41;;;;;;;5.10;1.20;;;;;;;;;;5050608;28;20055;-56
2021/09/14 16:07:07;;;;;;;3.40;0.80;;;;;;;;;;5048998;28;20041;-56
2021/09/14 16:09:32;;;;;;;2.88;0.90;;;;;;;;;;5047662;28;20071;-57
2021/09/14 16:11:58;;;;;;;3.60;1.10;;;;;;;;;;5045799;28;20051;-56